sensor_id;sensor_type;location;lat;lon;timestamp;temperature;humidity
25200;DHT22;33094;48.782;9.162;2023-02-11T00:11:18;0.10;99.90
25200;DHT22;33094;48.782;9.162;2023-02-11T00:13:46;-2.10;99.90
25200;DHT22;33094;48.782;9.162;2023-02-11T00:26:34;-0.10;99.90
25200;DHT22;33094;48.782;9.162;2023-02-11T00:29:01;-0.10;99.90
25200;DHT22;33094;48.782;9.162;2023-02-11T00:31:27;-0.10;99.90
25200;DHT22;33094;48.782;9.162;2023-02-11T00:33:53;-0.10;99.90
25200;DHT22;33094;48.782;9.162;2023-02-11T00:36:22;0.00;99.90
25200;DHT22;33094;48.782;9.162;2023-02-11T00:38:49;0.10;99.90
25200;DHT22;33094;48.782;9.162;2023-02-11T00:41:16;0.10;99.90
25200;DHT22;33094;48.782;9.162;2023-02-11T00:43:41;0.00;99.90
25200;DHT22;33094;48.782;9.162;2023-02-11T00:46:07;0.00;99.90
25200;DHT22;33094;48.782;9.162;2023-02-11T00:48:33;0.10;99.90
25200;DHT22;33094;48.782;9.162;2023-02-11T00:50:59;0.00;99.90
25200;DHT22;33094;48.782;9.162;2023-02-11T00:53:25;0.10;99.90
25200;DHT22;33094;48.782;9.162;2023-02-11T00:55:50;0.00;99.90
25200;DHT22;33094;48.782;9.162;2023-02-11T00:58:16;0.10;99.90
25200;DHT22;33094;48.782;9.162;2023-02-11T01:00:42;0.10;99.90
25200;DHT22;33094;48.782;9.162;2023-02-11T01:03:07;0.10;99.90
25200;DHT22;33094;48.782;9.162;2023-02-11T01:05:33;0.90;99.90
25200;DHT22;33094;48.782;9.162;2023-02-11T01:07:59;0.30;99.90
25200;DHT22;33094;48.782;9.162;2023-02-11T01:10:25;0.00;99.90
25200;DHT22;33094;48.782;9.162;2023-02-11T01:12:50;0.00;99.90
25200;DHT22;33094;48.782;9.162;2023-02-11T01:15:18;0.00;99.90
25200;DHT22;33094;48.782;9.162;2023-02-11T01:17:43;-0.10;99.90
25200;DHT22;33094;48.782;9.162;2023-02-11T01:20:18;-0.10;99.90
25200;DHT22;33094;48.782;9.162;2023-02-11T01:22:44;-0.10;99.90
25200;DHT22;33094;48.782;9.162;2023-02-11T01:25:11;-0.10;99.90
25200;DHT22;33094;48.782;9.162;2023-02-11T01:27:37;-0.10;99.90
25200;DHT22;33094;48.782;9.162;2023-02-11T01:30:04;-0.10;99.90
25200;DHT22;33094;48.782;9.162;2023-02-11T01:32:29;-0.10;99.90
25200;DHT22;33094;48.782;9.162;2023-02-11T01:34:55;0.00;99.90
25200;DHT22;33094;48.782;9.162;2023-02-11T01:37:21;0.00;99.90
25200;DHT22;33094;48.782;9.162;2023-02-11T01:39:47;2.30;99.90
25200;DHT22;33094;48.782;9.162;2023-02-11T01:42:19;0.10;99.90
25200;DHT22;33094;48.782;9.162;2023-02-11T01:44:49;0.00;99.90
25200;DHT22;33094;48.782;9.162;2023-02-11T01:47:16;0.10;99.90
25200;DHT22;33094;48.782;9.162;2023-02-11T01:49:44;0.10;99.90
25200;DHT22;33094;48.782;9.162;2023-02-11T01:54:42;1.40;99.90
25200;DHT22;33094;48.782;9.162;2023-02-11T01:57:29;0.00;99.90
25200;DHT22;33094;48.782;9.162;2023-02-11T02:07:45;1.10;99.90
25200;DHT22;33094;48.782;9.162;2023-02-11T02:10:17;0.40;99.90
25200;DHT22;33094;48.782;9.162;2023-02-11T02:12:43;-0.10;99.90
25200;DHT22;33094;48.782;9.162;2023-02-11T02:15:27;-0.20;99.90
25200;DHT22;33094;48.782;9.162;2023-02-11T02:31:36;-0.40;99.90
25200;DHT22;33094;48.782;9.162;2023-02-11T02:34:11;-0.30;99.90
25200;DHT22;33094;48.782;9.162;2023-02-11T02:37:06;-0.30;99.90
25200;DHT22;33094;48.782;9.162;2023-02-11T02:39:35;-0.30;99.90
25200;DHT22;33094;48.782;9.162;2023-02-11T02:42:02;-0.20;99.90
25200;DHT22;33094;48.782;9.162;2023-02-11T02:44:28;-0.20;99.90
25200;DHT22;33094;48.782;9.162;2023-02-11T02:46:54;-0.10;99.90
25200;DHT22;33094;48.782;9.162;2023-02-11T02:49:20;-0.20;99.90
25200;DHT22;33094;48.782;9.162;2023-02-11T02:52:35;1.90;99.90
25200;DHT22;33094;48.782;9.162;2023-02-11T02:55:11;-0.30;99.90
25200;DHT22;33094;48.782;9.162;2023-02-11T02:58:10;-0.30;99.90
25200;DHT22;33094;48.782;9.162;2023-02-11T03:03:47;-0.30;99.90
25200;DHT22;33094;48.782;9.162;2023-02-11T03:06:41;-0.30;99.90
25200;DHT22;33094;48.782;9.162;2023-02-11T03:09:20;-0.20;99.90
25200;DHT22;33094;48.782;9.162;2023-02-11T03:11:48;-0.20;99.90
25200;DHT22;33094;48.782;9.162;2023-02-11T03:14:16;-0.20;99.90
25200;DHT22;33094;48.782;9.162;2023-02-11T03:16:44;-0.10;99.90
25200;DHT22;33094;48.782;9.162;2023-02-11T03:19:27;0.00;99.90
25200;DHT22;33094;48.782;9.162;2023-02-11T03:21:54;0.00;99.90
25200;DHT22;33094;48.782;9.162;2023-02-11T03:24:32;0.00;99.90
25200;DHT22;33094;48.782;9.162;2023-02-11T03:27:05;0.00;99.90
25200;DHT22;33094;48.782;9.162;2023-02-11T03:29:43;0.00;99.90
25200;DHT22;33094;48.782;9.162;2023-02-11T03:32:55;0.00;99.90
25200;DHT22;33094;48.782;9.162;2023-02-11T03:35:14;0.10;99.90
25200;DHT22;33094;48.782;9.162;2023-02-11T03:37:48;0.20;99.90
25200;DHT22;33094;48.782;9.162;2023-02-11T03:40:21;0.10;99.90
25200;DHT22;33094;48.782;9.162;2023-02-11T03:42:58;0.10;99.90
25200;DHT22;33094;48.782;9.162;2023-02-11T03:45:26;0.10;99.90
25200;DHT22;33094;48.782;9.162;2023-02-11T03:48:02;0.00;99.90
25200;DHT22;33094;48.782;9.162;2023-02-11T03:50:31;0.00;99.90
25200;DHT22;33094;48.782;9.162;2023-02-11T03:52:59;0.00;99.90
25200;DHT22;33094;48.782;9.162;2023-02-11T03:55:27;0.00;99.90
25200;DHT22;33094;48.782;9.162;2023-02-11T03:57:54;0.00;99.90
25200;DHT22;33094;48.782;9.162;2023-02-11T04:00:21;0.00;99.90
25200;DHT22;33094;48.782;9.162;2023-02-11T04:02:53;0.10;99.90
25200;DHT22;33094;48.782;9.162;2023-02-11T04:05:19;0.20;99.90
25200;DHT22;33094;48.782;9.162;2023-02-11T04:07:45;0.20;99.90
25200;DHT22;33094;48.782;9.162;2023-02-11T04:10:11;2.00;99.90
25200;DHT22;33094;48.782;9.162;2023-02-11T04:12:36;0.30;99.90
25200;DHT22;33094;48.782;9.162;2023-02-11T04:15:02;0.30;99.90
25200;DHT22;33094;48.782;9.162;2023-02-11T04:17:28;0.20;99.90
25200;DHT22;33094;48.782;9.162;2023-02-11T04:19:53;0.20;99.90
25200;DHT22;33094;48.782;9.162;2023-02-11T04:22:19;0.20;99.90
25200;DHT22;33094;48.782;9.162;2023-02-11T04:24:45;0.30;99.90
25200;DHT22;33094;48.782;9.162;2023-02-11T04:27:10;0.30;99.90
25200;DHT22;33094;48.782;9.162;2023-02-11T04:29:36;0.40;99.90
25200;DHT22;33094;48.782;9.162;2023-02-11T04:32:02;0.40;99.90
25200;DHT22;33094;48.782;9.162;2023-02-11T04:34:27;0.30;99.90
25200;DHT22;33094;48.782;9.162;2023-02-11T04:36:53;0.30;99.90
25200;DHT22;33094;48.782;9.162;2023-02-11T04:39:18;0.10;99.90
25200;DHT22;33094;48.782;9.162;2023-02-11T04:41:51;0.20;99.90
25200;DHT22;33094;48.782;9.162;2023-02-11T04:44:17;0.10;99.90
25200;DHT22;33094;48.782;9.162;2023-02-11T04:46:43;0.10;99.90
25200;DHT22;33094;48.782;9.162;2023-02-11T04:49:12;0.20;99.90
25200;DHT22;33094;48.782;9.162;2023-02-11T04:51:38;0.30;99.90
25200;DHT22;33094;48.782;9.162;2023-02-11T04:54:04;0.40;99.90
25200;DHT22;33094;48.782;9.162;2023-02-11T04:56:29;0.50;99.90
25200;DHT22;33094;48.782;9.162;2023-02-11T04:58:55;0.50;99.90
25200;DHT22;33094;48.782;9.162;2023-02-11T05:01:20;0.50;99.90
25200;DHT22;33094;48.782;9.162;2023-02-11T05:03:46;0.60;99.90
25200;DHT22;33094;48.782;9.162;2023-02-11T05:06:12;0.60;99.90
25200;DHT22;33094;48.782;9.162;2023-02-11T05:08:37;0.70;99.90
25200;DHT22;33094;48.782;9.162;2023-02-11T05:11:03;0.70;99.90
25200;DHT22;33094;48.782;9.162;2023-02-11T05:13:29;0.70;99.90
25200;DHT22;33094;48.782;9.162;2023-02-11T05:15:55;0.70;99.90
25200;DHT22;33094;48.782;9.162;2023-02-11T05:18:20;0.70;99.90
25200;DHT22;33094;48.782;9.162;2023-02-11T05:20:46;0.70;99.90
25200;DHT22;33094;48.782;9.162;2023-02-11T05:23:12;0.60;99.90
25200;DHT22;33094;48.782;9.162;2023-02-11T05:25:37;0.90;99.90
25200;DHT22;33094;48.782;9.162;2023-02-11T05:28:03;0.60;99.90
25200;DHT22;33094;48.782;9.162;2023-02-11T05:30:29;0.60;99.90
25200;DHT22;33094;48.782;9.162;2023-02-11T05:32:55;0.70;99.90
25200;DHT22;33094;48.782;9.162;2023-02-11T05:35:21;0.80;99.90
25200;DHT22;33094;48.782;9.162;2023-02-11T05:37:47;0.80;99.90
25200;DHT22;33094;48.782;9.162;2023-02-11T05:40:12;0.80;99.90
25200;DHT22;33094;48.782;9.162;2023-02-11T05:42:38;0.80;99.90
25200;DHT22;33094;48.782;9.162;2023-02-11T05:45:04;1.00;99.90
25200;DHT22;33094;48.782;9.162;2023-02-11T05:47:30;1.00;99.90
25200;DHT22;33094;48.782;9.162;2023-02-11T05:49:55;1.00;99.90
25200;DHT22;33094;48.782;9.162;2023-02-11T05:52:22;0.90;99.90
25200;DHT22;33094;48.782;9.162;2023-02-11T05:54:48;2.20;99.90
25200;DHT22;33094;48.782;9.162;2023-02-11T05:57:14;1.00;99.90
25200;DHT22;33094;48.782;9.162;2023-02-11T05:59:40;0.80;99.90
25200;DHT22;33094;48.782;9.162;2023-02-11T06:02:06;0.70;99.90
25200;DHT22;33094;48.782;9.162;2023-02-11T06:04:35;0.70;99.90
25200;DHT22;33094;48.782;9.162;2023-02-11T06:07:02;0.70;99.90
25200;DHT22;33094;48.782;9.162;2023-02-11T06:09:27;0.80;99.90
25200;DHT22;33094;48.782;9.162;2023-02-11T06:11:53;0.80;99.90
25200;DHT22;33094;48.782;9.162;2023-02-11T06:14:19;0.80;99.90
25200;DHT22;33094;48.782;9.162;2023-02-11T06:16:44;0.90;99.90
25200;DHT22;33094;48.782;9.162;2023-02-11T06:19:11;0.90;99.90
25200;DHT22;33094;48.782;9.162;2023-02-11T06:21:37;1.00;99.90
25200;DHT22;33094;48.782;9.162;2023-02-11T06:24:02;1.00;99.90
25200;DHT22;33094;48.782;9.162;2023-02-11T06:29:07;1.00;99.90
25200;DHT22;33094;48.782;9.162;2023-02-11T06:31:35;2.70;99.90
25200;DHT22;33094;48.782;9.162;2023-02-11T06:34:03;1.00;99.90
25200;DHT22;33094;48.782;9.162;2023-02-11T06:36:30;-1.20;99.90
25200;DHT22;33094;48.782;9.162;2023-02-11T06:39:00;1.30;99.90
25200;DHT22;33094;48.782;9.162;2023-02-11T07:23:24;1.10;99.90
25200;DHT22;33094;48.782;9.162;2023-02-11T07:31:16;1.50;99.90
25200;DHT22;33094;48.782;9.162;2023-02-11T07:36:19;1.50;99.90
25200;DHT22;33094;48.782;9.162;2023-02-11T08:17:36;2.60;99.90
25200;DHT22;33094;48.782;9.162;2023-02-11T09:53:59;2.70;99.90
25200;DHT22;33094;48.782;9.162;2023-02-11T09:59:14;4.90;99.90
25200;DHT22;33094;48.782;9.162;2023-02-11T10:01:49;5.20;99.90
25200;DHT22;33094;48.782;9.162;2023-02-11T10:06:56;5.90;99.90
25200;DHT22;33094;48.782;9.162;2023-02-11T10:12:31;6.20;99.90
25200;DHT22;33094;48.782;9.162;2023-02-11T10:33:19;6.70;99.90
25200;DHT22;33094;48.782;9.162;2023-02-11T10:46:24;6.90;99.90
25200;DHT22;33094;48.782;9.162;2023-02-11T10:49:39;7.10;99.90
25200;DHT22;33094;48.782;9.162;2023-02-11T10:52:25;7.00;99.90
25200;DHT22;33094;48.782;9.162;2023-02-11T12:28:50;14.00;99.90
25200;DHT22;33094;48.782;9.162;2023-02-11T12:50:49;10.60;99.90
25200;DHT22;33094;48.782;9.162;2023-02-11T12:53:29;10.60;99.90
25200;DHT22;33094;48.782;9.162;2023-02-11T12:57:01;10.50;99.90
25200;DHT22;33094;48.782;9.162;2023-02-11T12:58:58;10.60;99.90
25200;DHT22;33094;48.782;9.162;2023-02-11T13:01:32;10.50;99.90
25200;DHT22;33094;48.782;9.162;2023-02-11T13:04:10;10.50;99.90
25200;DHT22;33094;48.782;9.162;2023-02-11T13:06:44;10.10;99.90
25200;DHT22;33094;48.782;9.162;2023-02-11T13:09:17;10.10;99.90
25200;DHT22;33094;48.782;9.162;2023-02-11T13:15:22;10.90;99.90
25200;DHT22;33094;48.782;9.162;2023-02-11T13:21:14;10.90;99.90
25200;DHT22;33094;48.782;9.162;2023-02-11T13:31:30;10.50;99.90
25200;DHT22;33094;48.782;9.162;2023-02-11T13:33:56;12.40;99.90
25200;DHT22;33094;48.782;9.162;2023-02-11T13:39:25;9.90;99.90
25200;DHT22;33094;48.782;9.162;2023-02-11T13:42:01;11.80;99.90
25200;DHT22;33094;48.782;9.162;2023-02-11T13:44:28;11.10;99.90
25200;DHT22;33094;48.782;9.162;2023-02-11T13:47:04;7.70;99.90
25200;DHT22;33094;48.782;9.162;2023-02-11T13:51:58;9.90;99.90
25200;DHT22;33094;48.782;9.162;2023-02-11T13:54:36;9.40;99.90
25200;DHT22;33094;48.782;9.162;2023-02-11T13:57:26;7.00;99.90
25200;DHT22;33094;48.782;9.162;2023-02-11T13:59:55;7.50;99.90
25200;DHT22;33094;48.782;9.162;2023-02-11T14:02:31;7.90;99.90
25200;DHT22;33094;48.782;9.162;2023-02-11T14:05:15;9.20;99.90
25200;DHT22;33094;48.782;9.162;2023-02-11T14:10:53;9.30;99.90
25200;DHT22;33094;48.782;9.162;2023-02-11T14:13:25;9.30;99.90
25200;DHT22;33094;48.782;9.162;2023-02-11T14:16:14;11.90;99.90
25200;DHT22;33094;48.782;9.162;2023-02-11T14:21:18;9.20;99.90
25200;DHT22;33094;48.782;9.162;2023-02-11T14:23:46;9.30;99.90
25200;DHT22;33094;48.782;9.162;2023-02-11T14:26:34;8.60;99.90
25200;DHT22;33094;48.782;9.162;2023-02-11T14:29:28;8.70;99.90
25200;DHT22;33094;48.782;9.162;2023-02-11T14:40:04;9.20;99.90
25200;DHT22;33094;48.782;9.162;2023-02-11T14:58:13;9.30;99.90
25200;DHT22;33094;48.782;9.162;2023-02-11T15:00:57;7.40;99.90
25200;DHT22;33094;48.782;9.162;2023-02-11T15:03:36;9.30;99.90
25200;DHT22;33094;48.782;9.162;2023-02-11T15:08:44;8.20;99.90
25200;DHT22;33094;48.782;9.162;2023-02-11T15:11:14;11.70;99.90
25200;DHT22;33094;48.782;9.162;2023-02-11T15:13:42;8.20;99.90
25200;DHT22;33094;48.782;9.162;2023-02-11T15:16:17;9.00;99.90
25200;DHT22;33094;48.782;9.162;2023-02-11T15:18:55;10.50;99.90
25200;DHT22;33094;48.782;9.162;2023-02-11T15:21:28;8.90;99.90
25200;DHT22;33094;48.782;9.162;2023-02-11T15:24:19;7.20;99.90
25200;DHT22;33094;48.782;9.162;2023-02-11T15:26:56;7.00;99.90
25200;DHT22;33094;48.782;9.162;2023-02-11T15:29:36;8.30;99.90
25200;DHT22;33094;48.782;9.162;2023-02-11T15:32:13;10.70;99.90
25200;DHT22;33094;48.782;9.162;2023-02-11T15:34:41;8.60;99.90
25200;DHT22;33094;48.782;9.162;2023-02-11T15:37:16;8.60;99.90
25200;DHT22;33094;48.782;9.162;2023-02-11T15:39:44;9.80;99.90
25200;DHT22;33094;48.782;9.162;2023-02-11T15:42:29;7.20;99.90
25200;DHT22;33094;48.782;9.162;2023-02-11T15:47:49;8.30;99.90
25200;DHT22;33094;48.782;9.162;2023-02-11T15:50:24;7.50;99.90
25200;DHT22;33094;48.782;9.162;2023-02-11T15:52:52;7.40;99.90
25200;DHT22;33094;48.782;9.162;2023-02-11T15:55:20;6.70;99.90
25200;DHT22;33094;48.782;9.162;2023-02-11T15:57:54;9.10;99.90
25200;DHT22;33094;48.782;9.162;2023-02-11T16:00:22;8.20;99.90
25200;DHT22;33094;48.782;9.162;2023-02-11T16:02:51;9.60;99.90
25200;DHT22;33094;48.782;9.162;2023-02-11T16:05:35;8.10;99.90
25200;DHT22;33094;48.782;9.162;2023-02-11T16:08:24;8.20;99.90
25200;DHT22;33094;48.782;9.162;2023-02-11T16:11:00;7.20;99.90
25200;DHT22;33094;48.782;9.162;2023-02-11T16:13:29;7.90;99.90
25200;DHT22;33094;48.782;9.162;2023-02-11T16:16:02;8.00;99.90
25200;DHT22;33094;48.782;9.162;2023-02-11T16:18:35;9.20;99.90
25200;DHT22;33094;48.782;9.162;2023-02-11T16:21:03;5.50;99.90
25200;DHT22;33094;48.782;9.162;2023-02-11T16:23:40;6.00;99.90
25200;DHT22;33094;48.782;9.162;2023-02-11T16:29:06;7.90;99.90
25200;DHT22;33094;48.782;9.162;2023-02-11T16:31:45;6.70;99.90
25200;DHT22;33094;48.782;9.162;2023-02-11T16:34:21;7.90;99.90
25200;DHT22;33094;48.782;9.162;2023-02-11T16:39:23;7.80;99.90
25200;DHT22;33094;48.782;9.162;2023-02-11T16:41:51;5.70;99.90
25200;DHT22;33094;48.782;9.162;2023-02-11T16:44:18;7.80;99.90
25200;DHT22;33094;48.782;9.162;2023-02-11T16:51:58;7.70;99.90
25200;DHT22;33094;48.782;9.162;2023-02-11T16:57:04;7.60;99.90
25200;DHT22;33094;48.782;9.162;2023-02-11T17:19:05;7.60;99.90
25200;DHT22;33094;48.782;9.162;2023-02-11T17:21:32;9.20;99.90
25200;DHT22;33094;48.782;9.162;2023-02-11T17:23:58;7.60;99.90
25200;DHT22;33094;48.782;9.162;2023-02-11T17:26:25;6.70;99.90
25200;DHT22;33094;48.782;9.162;2023-02-11T17:28:51;7.00;99.90
25200;DHT22;33094;48.782;9.162;2023-02-11T17:31:17;7.50;99.90
25200;DHT22;33094;48.782;9.162;2023-02-11T17:33:42;6.50;99.90
25200;DHT22;33094;48.782;9.162;2023-02-11T17:36:11;7.30;99.90
25200;DHT22;33094;48.782;9.162;2023-02-11T17:38:37;7.40;99.90
25200;DHT22;33094;48.782;9.162;2023-02-11T17:41:04;7.30;99.90
25200;DHT22;33094;48.782;9.162;2023-02-11T17:43:48;7.30;99.90
25200;DHT22;33094;48.782;9.162;2023-02-11T17:46:14;6.10;99.90
25200;DHT22;33094;48.782;9.162;2023-02-11T17:48:43;7.50;99.90
25200;DHT22;33094;48.782;9.162;2023-02-11T17:51:32;7.20;99.90
25200;DHT22;33094;48.782;9.162;2023-02-11T17:54:01;9.50;99.90
25200;DHT22;33094;48.782;9.162;2023-02-11T17:56:28;7.60;99.90
25200;DHT22;33094;48.782;9.162;2023-02-11T17:58:55;7.30;99.90
25200;DHT22;33094;48.782;9.162;2023-02-11T18:01:20;10.00;99.90
25200;DHT22;33094;48.782;9.162;2023-02-11T18:03:46;8.30;99.90
25200;DHT22;33094;48.782;9.162;2023-02-11T18:06:12;5.40;99.90
25200;DHT22;33094;48.782;9.162;2023-02-11T18:08:38;6.50;99.90
25200;DHT22;33094;48.782;9.162;2023-02-11T18:11:08;7.30;99.90
25200;DHT22;33094;48.782;9.162;2023-02-11T18:13:34;7.00;99.90
25200;DHT22;33094;48.782;9.162;2023-02-11T18:16:04;7.40;99.90
25200;DHT22;33094;48.782;9.162;2023-02-11T18:18:30;7.40;99.90
25200;DHT22;33094;48.782;9.162;2023-02-11T18:21:00;9.40;99.90
25200;DHT22;33094;48.782;9.162;2023-02-11T18:23:26;7.30;99.90
25200;DHT22;33094;48.782;9.162;2023-02-11T18:25:52;7.20;99.90
25200;DHT22;33094;48.782;9.162;2023-02-11T18:28:18;7.10;99.90
25200;DHT22;33094;48.782;9.162;2023-02-11T18:30:44;5.90;99.90
25200;DHT22;33094;48.782;9.162;2023-02-11T18:33:10;7.10;99.90
25200;DHT22;33094;48.782;9.162;2023-02-11T18:35:39;8.60;99.90
25200;DHT22;33094;48.782;9.162;2023-02-11T18:38:06;7.30;99.90
25200;DHT22;33094;48.782;9.162;2023-02-11T18:40:32;7.20;99.90
25200;DHT22;33094;48.782;9.162;2023-02-11T18:42:57;9.20;99.90
25200;DHT22;33094;48.782;9.162;2023-02-11T18:45:24;9.60;99.90
25200;DHT22;33094;48.782;9.162;2023-02-11T18:47:53;9.40;99.90
25200;DHT22;33094;48.782;9.162;2023-02-11T18:50:18;7.10;99.90
25200;DHT22;33094;48.782;9.162;2023-02-11T18:52:46;7.40;99.90
25200;DHT22;33094;48.782;9.162;2023-02-11T18:55:12;8.70;99.90
25200;DHT22;33094;48.782;9.162;2023-02-11T18:57:39;9.00;99.90
25200;DHT22;33094;48.782;9.162;2023-02-11T19:00:06;8.50;99.90
25200;DHT22;33094;48.782;9.162;2023-02-11T19:02:32;7.20;99.90
25200;DHT22;33094;48.782;9.162;2023-02-11T19:04:58;7.10;99.90
25200;DHT22;33094;48.782;9.162;2023-02-11T19:07:23;7.20;99.90
25200;DHT22;33094;48.782;9.162;2023-02-11T19:09:49;6.90;99.90
25200;DHT22;33094;48.782;9.162;2023-02-11T19:12:15;7.10;99.90
25200;DHT22;33094;48.782;9.162;2023-02-11T19:14:41;6.60;99.90
25200;DHT22;33094;48.782;9.162;2023-02-11T19:17:08;6.00;99.90
25200;DHT22;33094;48.782;9.162;2023-02-11T19:19:36;7.20;99.90
25200;DHT22;33094;48.782;9.162;2023-02-11T19:22:05;6.30;99.90
25200;DHT22;33094;48.782;9.162;2023-02-11T19:24:32;9.20;99.90
25200;DHT22;33094;48.782;9.162;2023-02-11T19:27:00;5.50;99.90
25200;DHT22;33094;48.782;9.162;2023-02-11T19:29:28;7.10;99.90
25200;DHT22;33094;48.782;9.162;2023-02-11T19:31:54;8.50;99.90
25200;DHT22;33094;48.782;9.162;2023-02-11T19:34:20;9.30;99.90
25200;DHT22;33094;48.782;9.162;2023-02-11T19:36:47;7.10;99.90
25200;DHT22;33094;48.782;9.162;2023-02-11T19:39:13;8.40;99.90
25200;DHT22;33094;48.782;9.162;2023-02-11T19:41:39;7.10;99.90
25200;DHT22;33094;48.782;9.162;2023-02-11T19:44:05;6.80;99.90
25200;DHT22;33094;48.782;9.162;2023-02-11T19:46:34;9.60;99.90
25200;DHT22;33094;48.782;9.162;2023-02-11T19:49:01;9.20;99.90
25200;DHT22;33094;48.782;9.162;2023-02-11T19:51:28;9.40;99.90
25200;DHT22;33094;48.782;9.162;2023-02-11T19:53:55;7.20;99.90
25200;DHT22;33094;48.782;9.162;2023-02-11T19:56:22;7.00;99.90
25200;DHT22;33094;48.782;9.162;2023-02-11T19:58:48;9.30;99.90
25200;DHT22;33094;48.782;9.162;2023-02-11T20:01:16;7.00;99.90
25200;DHT22;33094;48.782;9.162;2023-02-11T20:03:52;7.20;99.90
25200;DHT22;33094;48.782;9.162;2023-02-11T20:06:22;7.00;99.90
25200;DHT22;33094;48.782;9.162;2023-02-11T20:08:52;6.60;99.90
25200;DHT22;33094;48.782;9.162;2023-02-11T20:11:21;8.80;99.90
25200;DHT22;33094;48.782;9.162;2023-02-11T20:13:47;6.90;99.90
25200;DHT22;33094;48.782;9.162;2023-02-11T20:16:16;7.00;99.90
25200;DHT22;33094;48.782;9.162;2023-02-11T20:18:43;7.20;99.90
25200;DHT22;33094;48.782;9.162;2023-02-11T20:21:14;8.90;99.90
25200;DHT22;33094;48.782;9.162;2023-02-11T20:23:41;9.40;99.90
25200;DHT22;33094;48.782;9.162;2023-02-11T20:26:08;7.10;99.90
25200;DHT22;33094;48.782;9.162;2023-02-11T20:28:35;7.10;99.90
25200;DHT22;33094;48.782;9.162;2023-02-11T20:31:01;9.70;99.90
25200;DHT22;33094;48.782;9.162;2023-02-11T20:33:31;7.40;99.90
25200;DHT22;33094;48.782;9.162;2023-02-11T20:36:08;6.90;99.90
25200;DHT22;33094;48.782;9.162;2023-02-11T20:38:37;7.30;99.90
25200;DHT22;33094;48.782;9.162;2023-02-11T20:41:22;5.20;99.90
25200;DHT22;33094;48.782;9.162;2023-02-11T20:43:50;6.40;99.90
25200;DHT22;33094;48.782;9.162;2023-02-11T20:46:25;6.60;99.90
25200;DHT22;33094;48.782;9.162;2023-02-11T20:48:52;8.90;99.90
25200;DHT22;33094;48.782;9.162;2023-02-11T20:51:22;9.10;99.90
25200;DHT22;33094;48.782;9.162;2023-02-11T20:53:49;7.10;99.90
25200;DHT22;33094;48.782;9.162;2023-02-11T20:56:26;6.90;99.90
25200;DHT22;33094;48.782;9.162;2023-02-11T20:59:05;6.50;99.90
25200;DHT22;33094;48.782;9.162;2023-02-11T21:01:34;4.80;99.90
25200;DHT22;33094;48.782;9.162;2023-02-11T21:04:09;6.90;99.90
25200;DHT22;33094;48.782;9.162;2023-02-11T21:06:44;8.50;99.90
25200;DHT22;33094;48.782;9.162;2023-02-11T21:09:22;9.40;99.90
25200;DHT22;33094;48.782;9.162;2023-02-11T21:11:54;8.70;99.90
25200;DHT22;33094;48.782;9.162;2023-02-11T21:14:30;6.90;99.90
25200;DHT22;33094;48.782;9.162;2023-02-11T21:16:56;5.80;99.90
25200;DHT22;33094;48.782;9.162;2023-02-11T21:19:22;8.30;99.90
25200;DHT22;33094;48.782;9.162;2023-02-11T21:21:57;7.80;99.90
25200;DHT22;33094;48.782;9.162;2023-02-11T21:24:25;7.00;99.90
25200;DHT22;33094;48.782;9.162;2023-02-11T21:26:55;8.80;99.90
25200;DHT22;33094;48.782;9.162;2023-02-11T21:29:21;5.10;99.90
25200;DHT22;33094;48.782;9.162;2023-02-11T21:31:49;6.10;99.90
25200;DHT22;33094;48.782;9.162;2023-02-11T21:34:15;7.20;99.90
25200;DHT22;33094;48.782;9.162;2023-02-11T21:36:41;4.70;99.90
25200;DHT22;33094;48.782;9.162;2023-02-11T21:39:07;6.90;99.90
25200;DHT22;33094;48.782;9.162;2023-02-11T21:41:33;6.80;99.90
25200;DHT22;33094;48.782;9.162;2023-02-11T21:43:59;7.90;99.90
25200;DHT22;33094;48.782;9.162;2023-02-11T21:46:25;7.60;99.90
25200;DHT22;33094;48.782;9.162;2023-02-11T21:48:51;8.70;99.90
25200;DHT22;33094;48.782;9.162;2023-02-11T21:51:22;6.80;99.90
25200;DHT22;33094;48.782;9.162;2023-02-11T21:53:59;7.80;99.90
25200;DHT22;33094;48.782;9.162;2023-02-11T21:56:29;6.80;99.90
25200;DHT22;33094;48.782;9.162;2023-02-11T21:58:55;7.90;99.90
25200;DHT22;33094;48.782;9.162;2023-02-11T22:01:27;6.80;99.90
25200;DHT22;33094;48.782;9.162;2023-02-11T22:03:53;6.70;99.90
25200;DHT22;33094;48.782;9.162;2023-02-11T22:06:25;6.70;99.90
25200;DHT22;33094;48.782;9.162;2023-02-11T22:08:53;6.80;99.90
25200;DHT22;33094;48.782;9.162;2023-02-11T22:11:19;8.90;99.90
25200;DHT22;33094;48.782;9.162;2023-02-11T22:13:53;9.20;99.90
25200;DHT22;33094;48.782;9.162;2023-02-11T22:16:19;6.80;99.90
25200;DHT22;33094;48.782;9.162;2023-02-11T22:18:45;9.20;99.90
25200;DHT22;33094;48.782;9.162;2023-02-11T22:21:14;6.70;99.90
25200;DHT22;33094;48.782;9.162;2023-02-11T22:23:40;7.50;99.90
25200;DHT22;33094;48.782;9.162;2023-02-11T22:26:16;6.70;99.90
25200;DHT22;33094;48.782;9.162;2023-02-11T22:28:42;9.40;99.90
25200;DHT22;33094;48.782;9.162;2023-02-11T22:31:20;7.40;99.90
25200;DHT22;33094;48.782;9.162;2023-02-11T22:33:46;6.70;99.90
25200;DHT22;33094;48.782;9.162;2023-02-11T22:36:18;7.20;99.90
25200;DHT22;33094;48.782;9.162;2023-02-11T22:38:45;8.30;99.90
25200;DHT22;33094;48.782;9.162;2023-02-11T22:41:11;6.70;99.90
25200;DHT22;33094;48.782;9.162;2023-02-11T22:43:37;8.80;99.90
25200;DHT22;33094;48.782;9.162;2023-02-11T22:46:05;6.50;99.90
25200;DHT22;33094;48.782;9.162;2023-02-11T22:48:32;6.90;99.90
25200;DHT22;33094;48.782;9.162;2023-02-11T22:51:05;5.30;99.90
25200;DHT22;33094;48.782;9.162;2023-02-11T22:53:31;6.70;99.90
25200;DHT22;33094;48.782;9.162;2023-02-11T22:56:06;6.90;99.90
25200;DHT22;33094;48.782;9.162;2023-02-11T22:58:33;6.60;99.90
25200;DHT22;33094;48.782;9.162;2023-02-11T23:00:59;8.20;99.90
25200;DHT22;33094;48.782;9.162;2023-02-11T23:03:27;8.10;99.90
25200;DHT22;33094;48.782;9.162;2023-02-11T23:05:53;8.60;99.90
25200;DHT22;33094;48.782;9.162;2023-02-11T23:08:19;4.30;99.90
25200;DHT22;33094;48.782;9.162;2023-02-11T23:10:52;8.70;99.90
25200;DHT22;33094;48.782;9.162;2023-02-11T23:13:23;6.50;99.90
25200;DHT22;33094;48.782;9.162;2023-02-11T23:15:52;6.70;99.90
25200;DHT22;33094;48.782;9.162;2023-02-11T23:18:17;6.70;99.90
25200;DHT22;33094;48.782;9.162;2023-02-11T23:20:43;6.60;99.90
25200;DHT22;33094;48.782;9.162;2023-02-11T23:23:16;6.60;99.90
25200;DHT22;33094;48.782;9.162;2023-02-11T23:25:42;6.70;99.90
25200;DHT22;33094;48.782;9.162;2023-02-11T23:28:11;6.60;99.90
25200;DHT22;33094;48.782;9.162;2023-02-11T23:30:38;6.10;99.90
25200;DHT22;33094;48.782;9.162;2023-02-11T23:33:04;6.60;99.90
25200;DHT22;33094;48.782;9.162;2023-02-11T23:35:29;9.00;99.90
25200;DHT22;33094;48.782;9.162;2023-02-11T23:37:55;8.10;99.90
25200;DHT22;33094;48.782;9.162;2023-02-11T23:40:21;6.60;99.90
